createdAt,value
2019-03-20T00:00:57.560Z,1.60
2019-03-20T00:03:27.949Z,1.60
2019-03-20T00:05:58.324Z,1.80
2019-03-20T00:08:28.201Z,1.50
2019-03-20T00:10:58.376Z,1.43
2019-03-20T00:13:27.934Z,1.50
2019-03-20T00:16:00.545Z,1.70
2019-03-20T00:18:30.893Z,1.57
2019-03-20T00:21:01.257Z,1.30
2019-03-20T00:23:31.925Z,1.73
2019-03-20T00:26:01.610Z,1.90
2019-03-20T00:28:31.773Z,1.47
2019-03-20T00:31:05.219Z,1.47
2019-03-20T00:33:35.709Z,1.30
2019-03-20T00:36:07.765Z,1.50
2019-03-20T00:38:37.513Z,1.50
2019-03-20T00:41:07.232Z,1.53
2019-03-20T00:43:37.962Z,1.30
2019-03-20T00:46:07.970Z,1.30
2019-03-20T00:48:37.797Z,1.40
2019-03-20T00:51:08.199Z,1.27
2019-03-20T00:53:38.353Z,1.77
2019-03-20T00:56:08.141Z,1.80
2019-03-20T00:58:39.722Z,1.33
2019-03-20T01:01:09.602Z,1.60
2019-03-20T01:03:40.757Z,1.40
2019-03-20T01:06:10.777Z,1.37
2019-03-20T01:08:40.421Z,1.30
2019-03-20T01:11:11.388Z,1.60
2019-03-20T01:13:44.493Z,1.47
2019-03-20T01:16:15.485Z,1.43
2019-03-20T01:18:45.921Z,1.80
2019-03-20T01:21:15.644Z,1.47
2019-03-20T01:23:45.761Z,1.40
2019-03-20T01:26:16.656Z,1.50
2019-03-20T01:28:48.476Z,1.83
2019-03-20T01:31:18.993Z,1.53
2019-03-20T01:33:48.993Z,1.53
2019-03-20T01:36:18.213Z,1.63
2019-03-20T01:38:48.211Z,1.30
2019-03-20T01:41:18.162Z,1.37
2019-03-20T01:43:48.796Z,1.40
2019-03-20T01:46:19.595Z,1.50
2019-03-20T01:48:50.005Z,1.20
2019-03-20T01:51:24.569Z,1.20
2019-03-20T01:53:55.000Z,1.30
2019-03-20T01:56:25.481Z,1.40
2019-03-20T01:58:55.788Z,1.20
2019-03-20T02:01:26.714Z,1.40
2019-03-20T02:03:56.670Z,1.13
2019-03-20T02:06:27.015Z,1.40
2019-03-20T02:08:59.333Z,1.20
2019-03-20T02:11:31.995Z,1.23
2019-03-20T02:14:01.852Z,1.30
2019-03-20T02:16:32.337Z,0.90
2019-03-20T02:19:03.703Z,1.40
2019-03-20T02:21:33.967Z,1.10
2019-03-20T02:24:06.233Z,0.93
2019-03-20T02:26:38.806Z,0.93
2019-03-20T02:29:09.313Z,1.37
2019-03-20T02:31:39.810Z,1.10
2019-03-20T02:34:12.105Z,1.00
2019-03-20T02:36:42.257Z,1.00
2019-03-20T02:39:12.585Z,1.10
2019-03-20T02:41:42.914Z,0.70
2019-03-20T02:44:13.243Z,1.03
2019-03-20T02:46:44.186Z,0.80
2019-03-20T02:49:14.089Z,0.90
2019-03-20T02:51:46.436Z,1.20
2019-03-20T02:54:16.527Z,0.90
2019-03-20T02:56:47.173Z,0.83
2019-03-20T02:59:17.639Z,1.07
2019-03-20T03:01:48.179Z,0.80
2019-03-20T03:04:18.334Z,1.13
2019-03-20T03:06:48.090Z,0.80
2019-03-20T03:09:18.596Z,0.80
2019-03-20T03:11:48.614Z,1.00
2019-03-20T03:14:19.673Z,0.97
2019-03-20T03:16:49.731Z,1.00
2019-03-20T03:19:19.371Z,0.93
2019-03-20T03:21:50.467Z,0.80
2019-03-20T03:24:20.594Z,0.90
2019-03-20T03:26:52.072Z,0.90
2019-03-20T03:29:21.806Z,0.73
2019-03-20T03:31:51.565Z,0.63
2019-03-20T03:34:21.480Z,0.90
2019-03-20T03:36:51.766Z,0.97
2019-03-20T03:39:21.720Z,1.17
2019-03-20T03:41:52.256Z,1.07
2019-03-20T03:44:22.400Z,0.87
2019-03-20T03:46:53.098Z,0.70
2019-03-20T03:49:23.519Z,0.87
2019-03-20T03:51:53.475Z,1.00
2019-03-20T03:54:24.025Z,1.20
2019-03-20T03:56:54.707Z,1.30
2019-03-20T03:59:24.766Z,0.90
2019-03-20T04:01:54.615Z,1.10
2019-03-20T04:04:25.262Z,1.27
2019-03-20T04:06:55.231Z,0.70
2019-03-20T04:09:25.599Z,1.20
2019-03-20T04:11:55.505Z,1.03
2019-03-20T04:14:25.449Z,1.17
2019-03-20T04:16:55.899Z,0.93
2019-03-20T04:19:26.489Z,1.23
2019-03-20T04:21:56.484Z,1.20
2019-03-20T04:24:27.017Z,1.00
2019-03-20T04:26:56.880Z,0.90
2019-03-20T04:29:28.406Z,1.10
2019-03-20T04:31:58.026Z,1.10
2019-03-20T04:34:28.585Z,1.00
2019-03-20T04:36:58.520Z,1.10
2019-03-20T04:39:28.878Z,1.27
2019-03-20T04:41:58.850Z,0.97
2019-03-20T04:44:27.843Z,1.10
2019-03-20T04:46:58.191Z,1.03
2019-03-20T04:49:27.903Z,1.57
2019-03-20T04:51:59.631Z,1.10
2019-03-20T04:54:29.882Z,1.10
2019-03-20T04:57:01.913Z,1.10
2019-03-20T04:59:33.718Z,1.03
2019-03-20T05:02:04.900Z,1.30
2019-03-20T05:04:34.668Z,1.17
2019-03-20T05:07:05.022Z,0.73
2019-03-20T05:09:34.882Z,1.10
2019-03-20T05:12:04.569Z,1.00
2019-03-20T05:14:34.521Z,0.90
2019-03-20T05:17:04.465Z,1.00
2019-03-20T05:19:37.245Z,0.97
2019-03-20T05:22:09.437Z,1.20
2019-03-20T05:24:39.829Z,0.93
2019-03-20T05:27:10.269Z,0.80
2019-03-20T05:29:40.530Z,1.00
2019-03-20T05:32:10.474Z,1.20
2019-03-20T05:34:41.182Z,0.80
2019-03-20T05:37:12.249Z,0.80
2019-03-20T05:39:43.506Z,1.20
2019-03-20T05:42:13.534Z,1.30
2019-03-20T05:44:44.562Z,1.20
2019-03-20T05:47:15.703Z,1.10
2019-03-20T05:49:46.613Z,1.73
2019-03-20T05:52:17.082Z,1.23
2019-03-20T05:54:47.515Z,1.00
2019-03-20T05:57:17.708Z,1.20
2019-03-20T05:59:48.218Z,1.17
2019-03-20T06:02:18.248Z,0.90
2019-03-20T06:04:49.177Z,0.90
2019-03-20T06:07:21.773Z,1.13
2019-03-20T06:09:52.024Z,1.33
2019-03-20T06:12:21.996Z,1.00
2019-03-20T06:14:52.237Z,0.83
2019-03-20T06:17:23.609Z,1.43
2019-03-20T06:19:53.865Z,1.20
2019-03-20T06:22:23.473Z,1.00
2019-03-20T06:24:55.809Z,1.17
2019-03-20T06:27:26.552Z,1.07
2019-03-20T06:29:58.241Z,0.90
2019-03-20T06:32:28.600Z,0.90
2019-03-20T06:34:59.921Z,1.00
2019-03-20T06:37:32.761Z,1.20
2019-03-20T06:40:02.677Z,1.20
2019-03-20T06:42:33.968Z,1.00
2019-03-20T06:45:06.582Z,1.30
2019-03-20T06:47:38.275Z,1.13
2019-03-20T06:50:11.172Z,1.40
2019-03-20T06:52:41.113Z,1.40
2019-03-20T06:55:11.294Z,1.13
2019-03-20T06:57:41.387Z,1.30
2019-03-20T07:00:48.522Z,1.03
2019-03-20T07:03:21.090Z,1.23
2019-03-20T07:06:01.373Z,1.00
2019-03-20T07:08:33.289Z,1.30
2019-03-20T07:11:18.769Z,1.50
2019-03-20T07:13:50.650Z,1.13
2019-03-20T07:16:21.536Z,1.00
2019-03-20T07:18:52.490Z,1.10
2019-03-20T07:21:22.829Z,1.13
2019-03-20T07:23:52.991Z,1.20
2019-03-20T07:26:23.389Z,1.23
2019-03-20T07:28:53.156Z,1.03
2019-03-20T07:31:23.890Z,1.50
2019-03-20T07:33:54.402Z,1.30
2019-03-20T07:36:24.199Z,1.60
2019-03-20T07:38:54.620Z,1.23
2019-03-20T07:41:24.340Z,1.23
2019-03-20T07:43:54.203Z,1.87
2019-03-20T07:46:25.308Z,1.33
2019-03-20T07:48:56.597Z,1.40
2019-03-20T07:51:27.107Z,1.20
2019-03-20T07:53:56.960Z,1.50
2019-03-20T07:56:27.325Z,1.43
2019-03-20T07:58:58.233Z,1.50
2019-03-20T08:01:29.257Z,1.60
2019-03-20T08:04:00.280Z,2.17
2019-03-20T08:06:31.381Z,1.30
2019-03-20T08:09:01.072Z,1.50
2019-03-20T08:11:31.454Z,1.33
2019-03-20T08:14:01.638Z,1.50
2019-03-20T08:16:31.279Z,1.40
2019-03-20T08:19:01.854Z,1.70
2019-03-20T08:21:31.565Z,1.43
2019-03-20T08:24:01.979Z,1.50
2019-03-20T08:26:32.929Z,1.50
2019-03-20T08:29:02.789Z,1.60
2019-03-20T08:31:32.777Z,1.80
2019-03-20T08:34:02.617Z,1.50
2019-03-20T08:36:33.167Z,1.60
2019-03-20T08:39:04.356Z,1.33
2019-03-20T08:41:35.876Z,1.70
2019-03-20T08:44:06.009Z,1.80
2019-03-20T08:46:36.358Z,1.33
2019-03-20T08:49:06.466Z,1.60
2019-03-20T08:51:37.120Z,1.40
2019-03-20T08:54:10.243Z,1.80
2019-03-20T08:56:43.232Z,1.40
2019-03-20T08:59:14.078Z,1.50
2019-03-20T09:01:44.432Z,2.10
2019-03-20T09:04:15.977Z,2.00
2019-03-20T09:06:50.231Z,1.63
2019-03-20T09:09:21.333Z,1.97
2019-03-20T09:11:51.823Z,1.80
2019-03-20T09:14:23.224Z,1.60
2019-03-20T09:16:53.019Z,1.80
2019-03-20T09:19:23.493Z,1.93
2019-03-20T09:21:53.935Z,1.93
2019-03-20T09:24:24.397Z,1.50
2019-03-20T09:26:56.450Z,1.83
2019-03-20T09:29:35.665Z,1.17
2019-03-20T09:31:59.565Z,2.00
2019-03-20T09:34:30.627Z,1.97
2019-03-20T09:37:01.341Z,1.90
2019-03-20T09:39:31.321Z,1.60
2019-03-20T09:42:01.852Z,1.80
2019-03-20T09:44:31.550Z,2.23
2019-03-20T09:47:02.082Z,2.07
2019-03-20T09:49:31.324Z,1.80
2019-03-20T09:52:02.138Z,2.03
2019-03-20T09:54:32.545Z,2.07
2019-03-20T09:57:02.961Z,2.30
2019-03-20T09:59:35.072Z,1.87
2019-03-20T10:02:05.304Z,2.10
2019-03-20T10:04:36.541Z,2.30
2019-03-20T10:07:07.461Z,2.40
2019-03-20T10:09:37.782Z,2.50
2019-03-20T10:12:08.667Z,2.67
2019-03-20T10:14:40.226Z,2.30
2019-03-20T10:17:13.105Z,2.40
2019-03-20T10:19:45.176Z,2.73
2019-03-20T10:22:14.963Z,3.03
2019-03-20T10:24:49.945Z,2.93
2019-03-20T10:27:19.698Z,2.93
2019-03-20T10:29:49.697Z,2.80
2019-03-20T10:32:21.761Z,2.80
2019-03-20T10:34:54.629Z,2.80
2019-03-20T10:37:24.450Z,2.80
2019-03-20T10:39:58.526Z,2.27
2019-03-20T10:42:28.266Z,2.40
2019-03-20T10:44:59.804Z,2.20
2019-03-20T10:47:29.910Z,1.80
2019-03-20T10:50:01.142Z,2.13
2019-03-20T10:52:31.749Z,2.23
2019-03-20T10:55:02.171Z,2.30
2019-03-20T10:57:32.666Z,2.03
2019-03-20T11:00:03.554Z,2.07
2019-03-20T11:02:33.953Z,2.10
2019-03-20T11:05:05.057Z,2.33
2019-03-20T11:07:37.496Z,1.93
2019-03-20T11:10:07.723Z,2.10
2019-03-20T11:12:37.938Z,2.10
2019-03-20T11:15:09.045Z,1.90
2019-03-20T11:17:39.029Z,2.10
2019-03-20T11:20:11.419Z,1.90
2019-03-20T11:22:42.026Z,1.90
2019-03-20T11:25:12.393Z,1.50
2019-03-20T11:27:42.796Z,2.00
2019-03-20T11:30:14.450Z,1.80
2019-03-20T11:32:45.814Z,2.00
2019-03-20T11:35:18.270Z,2.20
2019-03-20T11:37:50.331Z,1.90
2019-03-20T11:40:24.734Z,2.00
2019-03-20T11:42:56.174Z,1.90
2019-03-20T11:45:27.386Z,2.30
2019-03-20T11:47:57.148Z,2.10
2019-03-20T11:50:31.509Z,1.90
2019-03-20T11:53:01.894Z,2.00
2019-03-20T11:55:32.374Z,1.77
2019-03-20T11:58:02.514Z,2.23
2019-03-20T12:00:32.525Z,2.00
2019-03-20T12:03:04.258Z,2.10
2019-03-20T12:05:34.817Z,2.23
2019-03-20T12:08:05.938Z,2.33
2019-03-20T12:10:35.797Z,2.20
2019-03-20T12:13:05.938Z,1.80
2019-03-20T12:15:36.372Z,2.10
2019-03-20T12:18:06.629Z,1.90
2019-03-20T12:20:36.480Z,1.77
2019-03-20T12:23:06.874Z,1.80
2019-03-20T12:25:36.876Z,1.93
2019-03-20T12:28:07.354Z,1.50
2019-03-20T12:30:37.141Z,1.80
2019-03-20T12:33:07.051Z,1.90
2019-03-20T12:35:37.617Z,1.90
2019-03-20T12:38:14.482Z,2.00
2019-03-20T12:40:40.049Z,1.70
2019-03-20T12:43:10.521Z,1.87
2019-03-20T12:45:41.045Z,2.20
2019-03-20T12:48:11.047Z,1.63
2019-03-20T12:50:42.048Z,1.50
2019-03-20T12:53:12.055Z,1.67
2019-03-20T12:55:42.062Z,1.50
2019-03-20T12:58:13.205Z,1.70
2019-03-20T13:00:43.153Z,1.93
2019-03-20T13:05:42.873Z,1.20
2019-03-20T13:08:13.398Z,1.40
2019-03-20T13:10:43.842Z,1.23
2019-03-20T13:13:16.178Z,1.20
2019-03-20T13:15:46.297Z,1.10
2019-03-20T13:18:16.578Z,1.03
2019-03-20T13:20:47.558Z,2.20
2019-03-20T13:23:18.219Z,1.33
2019-03-20T13:25:48.157Z,1.13
2019-03-20T13:28:17.994Z,0.93
2019-03-20T13:30:50.479Z,1.00
2019-03-20T13:33:25.560Z,1.03
2019-03-20T13:35:51.733Z,0.80
2019-03-20T13:38:24.574Z,0.80
2019-03-20T13:40:55.481Z,1.10
2019-03-20T13:43:26.456Z,1.00
2019-03-20T13:45:55.700Z,0.80
2019-03-20T13:48:26.137Z,1.07
2019-03-20T13:50:56.410Z,1.30
2019-03-20T13:53:28.320Z,0.80
2019-03-20T13:55:58.793Z,1.07
2019-03-20T13:58:28.953Z,0.90
2019-03-20T14:00:58.537Z,1.00
2019-03-20T14:03:29.050Z,1.00
2019-03-20T14:05:58.798Z,1.00
2019-03-20T14:08:28.806Z,1.00
2019-03-20T14:10:58.528Z,0.90
2019-03-20T14:13:28.141Z,1.10
2019-03-20T14:15:58.044Z,0.93
2019-03-20T14:18:27.421Z,0.90
2019-03-20T14:20:59.501Z,0.90
2019-03-20T14:23:30.076Z,1.00
2019-03-20T14:26:01.049Z,0.90
2019-03-20T14:28:33.425Z,1.30
2019-03-20T14:31:04.869Z,1.27
2019-03-20T14:33:35.941Z,0.97
2019-03-20T14:36:06.411Z,0.87
2019-03-20T14:38:37.429Z,1.27
2019-03-20T14:41:08.468Z,1.07
2019-03-20T14:43:38.141Z,1.10
2019-03-20T14:46:07.800Z,1.10
2019-03-20T14:48:37.837Z,1.60
2019-03-20T14:51:08.219Z,0.80
2019-03-20T14:53:39.288Z,0.90
2019-03-20T14:56:09.689Z,1.00
2019-03-20T14:58:39.993Z,1.37
2019-03-20T15:01:10.456Z,1.00
2019-03-20T15:03:40.865Z,1.10
2019-03-20T15:06:10.401Z,0.93
2019-03-20T15:08:40.969Z,1.00
2019-03-20T15:11:10.733Z,1.30
2019-03-20T15:13:40.364Z,1.00
2019-03-20T15:16:12.517Z,1.20
2019-03-20T15:18:43.087Z,1.30
2019-03-20T15:21:12.857Z,1.13
2019-03-20T15:23:42.569Z,1.17
2019-03-20T15:26:13.621Z,1.27
2019-03-20T15:28:46.137Z,1.00
2019-03-20T15:31:17.125Z,0.93
2019-03-20T15:33:49.621Z,1.17
2019-03-20T15:36:19.597Z,1.53
2019-03-20T15:38:50.078Z,1.17
2019-03-20T15:41:19.850Z,1.00
2019-03-20T15:43:49.921Z,1.20
2019-03-20T15:46:20.456Z,1.00
2019-03-20T15:48:50.161Z,1.20
2019-03-20T15:51:20.781Z,1.10
2019-03-20T15:53:50.835Z,1.50
2019-03-20T15:56:20.657Z,0.90
2019-03-20T15:58:50.585Z,1.10
2019-03-20T16:01:21.178Z,1.30
2019-03-20T16:03:59.527Z,1.47
2019-03-20T16:06:29.694Z,1.50
2019-03-20T16:08:59.396Z,1.20
2019-03-20T16:11:29.354Z,1.03
2019-03-20T16:13:59.122Z,1.10
2019-03-20T16:16:29.161Z,1.00
2019-03-20T16:19:00.949Z,1.30
2019-03-20T16:21:31.378Z,1.30
2019-03-20T16:24:02.317Z,1.23
2019-03-20T16:26:32.707Z,1.17
2019-03-20T16:29:02.409Z,1.23
2019-03-20T16:31:32.342Z,1.43
2019-03-20T16:34:02.746Z,1.20
2019-03-20T16:36:33.552Z,1.23
2019-03-20T16:39:05.016Z,1.20
2019-03-20T16:41:36.583Z,1.37
2019-03-20T16:44:06.352Z,1.13
2019-03-20T16:46:36.896Z,1.03
2019-03-20T16:49:07.873Z,1.30
2019-03-20T16:51:38.329Z,1.57
2019-03-20T16:54:08.354Z,1.20
2019-03-20T16:56:39.417Z,1.30
2019-03-20T16:59:09.732Z,1.60
2019-03-20T17:01:40.506Z,1.50
2019-03-20T17:04:10.942Z,1.40
2019-03-20T17:06:40.942Z,1.47
2019-03-20T17:09:11.556Z,1.30
2019-03-20T17:11:42.025Z,1.27
2019-03-20T17:14:12.461Z,1.40
2019-03-20T17:16:42.646Z,1.37
2019-03-20T17:19:14.029Z,1.20
2019-03-20T17:21:44.024Z,1.10
2019-03-20T17:24:14.439Z,1.20
2019-03-20T17:26:44.675Z,1.60
2019-03-20T17:29:14.755Z,1.60
2019-03-20T17:31:44.018Z,1.20
2019-03-20T17:34:14.389Z,1.23
2019-03-20T17:36:45.306Z,1.40
2019-03-20T17:39:16.293Z,1.30
2019-03-20T17:41:46.765Z,1.33
2019-03-20T17:44:18.180Z,1.57
2019-03-20T17:46:49.333Z,1.47
2019-03-20T17:49:19.098Z,1.80
2019-03-20T17:51:49.029Z,1.33
2019-03-20T17:54:19.228Z,1.20
2019-03-20T17:56:53.510Z,1.20
2019-03-20T17:59:23.224Z,1.10
2019-03-20T18:01:52.938Z,1.33
2019-03-20T18:04:22.360Z,1.30
2019-03-20T18:06:52.800Z,1.30
2019-03-20T18:09:22.365Z,1.40
2019-03-20T18:11:52.286Z,1.50
2019-03-20T18:14:23.259Z,1.30
2019-03-20T18:16:53.501Z,1.23
2019-03-20T18:19:23.449Z,1.33
2019-03-20T18:21:54.190Z,1.30
2019-03-20T18:24:26.897Z,1.57
2019-03-20T18:26:57.789Z,1.60
2019-03-20T18:29:28.233Z,1.47
2019-03-20T18:31:58.733Z,1.20
2019-03-20T18:34:29.237Z,1.33
2019-03-20T18:36:59.761Z,1.67
2019-03-20T18:39:29.519Z,1.73
2019-03-20T18:42:01.159Z,1.43
2019-03-20T18:44:31.674Z,1.67
2019-03-20T18:47:03.426Z,1.80
2019-03-20T18:49:34.066Z,1.60
2019-03-20T18:52:03.977Z,1.80
2019-03-20T18:54:34.505Z,1.50
2019-03-20T18:57:04.990Z,1.90
2019-03-20T18:59:35.401Z,1.43
2019-03-20T19:02:05.050Z,1.90
2019-03-20T19:04:35.129Z,1.80
2019-03-20T19:07:05.629Z,1.80
2019-03-20T19:09:36.169Z,1.60
2019-03-20T19:12:08.840Z,1.53
2019-03-20T19:14:38.255Z,1.67
2019-03-20T19:17:08.490Z,2.00
2019-03-20T19:19:38.465Z,1.73
2019-03-20T19:22:08.460Z,1.60
2019-03-20T19:24:39.353Z,1.83
2019-03-20T19:27:10.377Z,1.70
2019-03-20T19:29:39.823Z,1.70
2019-03-20T19:32:09.612Z,1.90
2019-03-20T19:34:39.826Z,1.90
2019-03-20T19:37:10.200Z,1.73
2019-03-20T19:39:40.730Z,1.40
2019-03-20T19:42:19.583Z,1.57
2019-03-20T19:44:41.709Z,2.33
2019-03-20T19:47:11.984Z,1.67
2019-03-20T19:49:42.521Z,1.50
2019-03-20T19:52:13.442Z,1.57
2019-03-20T19:54:45.051Z,1.57
2019-03-20T19:57:14.982Z,1.20
2019-03-20T19:59:44.330Z,1.43
2019-03-20T20:02:15.584Z,1.63
2019-03-20T20:04:46.835Z,1.30
2019-03-20T20:07:16.938Z,1.30
2019-03-20T20:09:47.366Z,1.30
2019-03-20T20:12:19.103Z,1.50
2019-03-20T20:14:49.037Z,1.40
2019-03-20T20:17:19.581Z,1.30
2019-03-20T20:19:49.232Z,1.37
2019-03-20T20:22:21.224Z,1.10
2019-03-20T20:24:50.916Z,1.30
2019-03-20T20:27:21.233Z,1.10
2019-03-20T20:29:52.715Z,1.43
2019-03-20T20:32:23.054Z,1.13
2019-03-20T20:34:53.425Z,1.70
2019-03-20T20:37:24.508Z,1.83
2019-03-20T20:39:54.453Z,1.60
2019-03-20T20:42:26.350Z,1.83
2019-03-20T20:44:56.566Z,1.43
2019-03-20T20:47:26.477Z,1.47
2019-03-20T20:49:57.017Z,1.60
2019-03-20T20:52:27.022Z,1.40
2019-03-20T20:54:56.739Z,1.20
2019-03-20T20:57:26.566Z,1.50
2019-03-20T20:59:56.361Z,1.50
2019-03-20T21:02:26.329Z,1.20
2019-03-20T21:04:56.270Z,1.57
2019-03-20T21:07:26.741Z,1.37
2019-03-20T21:09:56.050Z,1.53
2019-03-20T21:12:26.525Z,1.30
2019-03-20T21:14:58.942Z,1.70
2019-03-20T21:17:38.215Z,1.53
2019-03-20T21:20:08.864Z,1.57
2019-03-20T21:23:10.188Z,1.60
2019-03-20T21:25:42.123Z,1.37
2019-03-20T21:28:33.618Z,1.20
2019-03-20T21:31:06.766Z,1.85
2019-03-20T21:33:48.251Z,1.43
2019-03-20T21:36:36.051Z,1.20
2019-03-20T21:39:08.296Z,1.40
2019-03-20T21:42:08.964Z,1.43
2019-03-20T21:44:57.491Z,1.07
2019-03-20T21:47:38.301Z,1.20
2019-03-20T21:50:30.912Z,1.67
2019-03-20T21:53:01.752Z,1.27
2019-03-20T21:55:50.205Z,0.97
2019-03-20T21:58:38.845Z,1.27
2019-03-20T22:01:33.211Z,1.23
2019-03-20T22:04:04.577Z,1.40
2019-03-20T22:06:52.618Z,1.30
2019-03-20T22:09:54.546Z,1.20
2019-03-20T22:12:28.133Z,1.30
2019-03-20T22:15:04.513Z,1.20
2019-03-20T22:17:51.784Z,1.40
2019-03-20T22:20:48.029Z,1.57
2019-03-20T22:23:37.713Z,1.20
2019-03-20T22:26:19.756Z,1.43
2019-03-20T22:29:10.218Z,1.37
2019-03-20T22:31:42.009Z,1.20
2019-03-20T22:34:29.077Z,1.00
2019-03-20T22:36:59.960Z,1.07
2019-03-20T22:40:04.048Z,1.50
2019-03-20T22:42:37.335Z,1.43
2019-03-20T22:45:31.045Z,1.30
2019-03-20T22:48:16.345Z,1.07
2019-03-20T22:50:57.493Z,1.13
2019-03-20T22:53:58.577Z,1.30
2019-03-20T22:56:50.814Z,1.60
2019-03-20T22:59:23.311Z,1.10
2019-03-20T23:01:59.114Z,1.20
2019-03-20T23:04:53.682Z,1.90
2019-03-20T23:07:25.034Z,1.13
2019-03-20T23:09:55.927Z,1.67
2019-03-20T23:12:28.091Z,1.73
2019-03-20T23:15:01.257Z,1.40
2019-03-20T23:17:32.232Z,1.40
2019-03-20T23:20:03.386Z,1.10
2019-03-20T23:22:34.122Z,1.20
2019-03-20T23:25:04.654Z,1.23
2019-03-20T23:27:36.474Z,1.50
2019-03-20T23:30:09.901Z,1.60
2019-03-20T23:32:40.310Z,1.50
2019-03-20T23:35:11.118Z,1.30
2019-03-20T23:37:41.621Z,1.40
2019-03-20T23:40:13.106Z,1.70
2019-03-20T23:45:21.298Z,1.30
2019-03-20T23:48:07.655Z,1.50
2019-03-20T23:50:37.825Z,1.63
2019-03-20T23:53:08.241Z,1.50
2019-03-20T23:55:38.297Z,0.93
2019-03-20T23:58:11.725Z,1.30
